Time Latitude Longitude Accuracy (66% radius in meters) Altitude (meters) Speed (km/hour) Bearing (degrees) Battery (%) GPS flag
07:53:52 55.921023 37.361536 6 177 1.0609649419785 240.97232055664 77 1 delete
07:53:50 55.921048 37.361606 6 175 0.87434202432632 238.45178222656 77 1 delete
07:53:46 55.921084 37.361722 6 174 0.52475440502167 242.70703125 77 1 delete
07:53:42 55.921094 37.361802 6 179 0.3087839782238 238.26918029785 77 1 delete
07:51:46 55.921080 37.361890 6 169 0 51.828971862793 77 1 delete
07:51:00 55.921044 37.361841 6 177 0 51.828971862793 77 1 delete
07:50:49 55.921096 37.361807 6 187 0 51.828971862793 77 1 delete
07:50:35 55.921078 37.361884 6 166 0 51.828971862793 77 1 delete
07:50:18 55.921063 37.361807 6 184 0 51.828971862793 77 1 delete
07:50:07 55.921078 37.361886 12 175 0 51.828971862793 77 1 delete
07:49:31 55.921078 37.361968 12 165 0 51.828971862793 77 1 delete
07:48:42 55.921102 37.361889 6 174 0 51.828971862793 77 1 delete
07:47:30 55.921066 37.361838 6 176 0 51.828971862793 77 1 delete
07:47:11 55.921113 37.361870 6 175 0 51.828971862793 77 1 delete
07:46:16 55.921063 37.361810 6 179 1.3879852294922 51.828971862793 82 1 delete
07:46:12 55.921023 37.361742 6 179 1.416041970253 36.162128448486 82 1 delete
07:46:09 55.921001 37.361672 6 178 1.9248895645142 54.296310424805 82 1 delete
07:46:06 55.920974 37.361579 6 183 2.6937673091888 45.374252319336 82 1 delete
07:46:04 55.920931 37.361528 8 182 3.4379651546478 28.500272750854 82 1 delete
07:46:02 55.920874 37.361479 8 183 3.6366751194 31.891124725342 82 1 delete
07:46:00 55.920819 37.361422 6 182 3.5199429988861 32.569725036621 82 1 delete
07:45:58 55.920762 37.361359 6 181 3.9015090465546 33.111392974854 82 1 delete
07:45:56 55.920698 37.361289 6 180 4.1339149475098 35.420841217041 82 1 delete
07:45:54 55.920632 37.361213 6 180 4.2302618026733 37.267108917236 82 1 delete
07:45:52 55.920567 37.361124 6 178 4.3245644569397 40.002696990967 82 1 delete
07:45:50 55.920504 37.361030 6 174 4.1681499481201 39.607769012451 82 1 delete
07:45:48 55.920444 37.360940 6 174 4.3110308647156 39.359302520752 82 1 delete
07:45:46 55.920385 37.360853 6 174 4.1284165382385 39.499187469482 82 1 delete
07:45:44 55.920327 37.360765 4 175 3.8739392757416 41.96236038208 82 1 delete
07:45:42 55.920276 37.360685 6 177 3.7863924503326 41.248153686523 82 1 delete
07:45:40 55.920225 37.360600 6 174 3.6605958938599 42.613590240479 82 1 delete
07:45:38 55.920177 37.360522 6 172 3.6325929164886 43.754096984863 82 1 delete
07:45:36 55.920138 37.360448 6 174 3.6032066345215 46.140167236328 82 1 delete
07:45:34 55.920087 37.360357 6 172 3.4924194812775 32.174144744873 82 1 delete
07:45:32 55.920032 37.360294 6 172 3.2072904109955 32.396949768066 82 1 delete
07:45:30 55.919983 37.360226 6 170 3.4959316253662 34.411022186279 82 1 delete
07:45:28 55.919932 37.360161 6 170 3.5202276706696 34.800743103027 82 1 delete
07:45:26 55.919881 37.360104 6 170 3.406884431839 33.953170776367 82 1 delete
07:45:24 55.919823 37.360045 8 171 3.4441225528717 32.136554718018 82 1 delete
07:45:22 55.919768 37.359996 8 171 3.0667514801025 32.872657775879 82 1 delete
07:45:20 55.919717 37.359946 6 171 3.3137426376343 36.333442687988 82 1 delete
07:45:18 55.919665 37.359884 6 170 3.3396706581116 38.674671173096 82 1 delete
07:45:16 55.919615 37.359820 8 170 3.3256537914276 38.942733764648 82 1 delete
07:45:14 55.919567 37.359756 6 170 3.2625324726105 38.611530303955 82 1 delete
07:45:12 55.919527 37.359687 6 170 2.9866881370544 39.873729705811 82 1 delete
07:45:10 55.919488 37.359628 8 170 3.0509099960327 35.684688568115 82 1 delete
07:45:08 55.919438 37.359569 6 172 2.9425058364868 36.773567199707 82 1 delete
07:45:06 55.919392 37.359510 6 171 3.2607626914978 38.414356231689 82 1 delete
07:45:04 55.919343 37.359446 4 170 3.237158536911 43.0732421875 82 1 delete
07:45:02 55.919296 37.359376 6 170 3.0383801460266 44.000736236572 82 1 delete